Latest Weather Observations for Camden

IDN60901

Issued at 4:21 am EST Monday 29 May 2017 (issued every 10 minutes, with the page automatically refreshed every 10 minutes)

About weather observations | Map of Sydney area stations | Latest observations for Sydney area | Other Formats
Station Details ID: 068192 Name: CAMDEN AIRPORT AWS Lat: -34.04 Lon: 150.69 Height: 73.9 m
Data from the previous 72 hours. | See also: Recent months at Camden
Date/Time
EST
Temp
°C
App
Temp
°C
Dew
Point
°C
Rel
Hum
%
Delta-T
°C
Wind Press
QNH
hPa
Press
MSL
hPa
Rain since
9am
mm
Dir  Spd
km/h
Gust
km/h
Spd
kts
Gust
kts
29/04:00am 7.4 6.0 5.7 89 0.8 NE 2 9 1 5 1014.3 1014.3 0.0
29/03:30am 6.6 5.5 5.1 90 0.7 CALM 0 2 0 1 1014.3 1014.3 0.0
29/03:00am 7.2 6.1 5.2 87 0.9 CALM 0 0 0 0 1014.3 1014.3 0.0
29/02:30am 7.4 5.4 4.4 81 1.3 N 4 9 2 5 1014.1 1014.1 0.0
29/02:00am 8.9 5.9 3.9 71 2.2 E 9 13 5 7 1014.2 1014.2 0.0
29/01:30am 9.7 7.2 4.7 71 2.2 N 7 9 4 5 1014.1 1014.1 0.0
29/01:00am 9.1 6.8 5.7 79 1.6 NNW 7 9 4 5 1014.2 1014.2 0.0
29/12:30am 10.3 6.9 4.2 66 2.7 SW 11 15 6 8 1014.1 1014.1 0.0
29/12:00am 11.9 9.2 3.9 58 3.6 S 7 11 4 6 1014.0 1014.0 0.0
 
Date/Time
EST
Temp
°C
App
Temp
°C
Dew
Point
°C
Rel
Hum
%
Delta-T
°C
Wind Press
QNH
hPa
Press
MSL
hPa
Rain since
9am
mm
Dir  Spd
km/h
Gust
km/h
Spd
kts
Gust
kts
28/11:30pm 12.6 9.5 3.6 54 4.0 WSW 9 13 5 7 1013.9 1013.9 0.0
28/11:00pm 12.8 9.8 4.3 56 3.9 WSW 9 11 5 6 1013.8 1013.8 0.0
28/10:30pm 13.1 9.8 4.8 57 3.8 WSW 11 13 6 7 1013.6 1013.6 0.0
28/10:00pm 13.6 10.1 5.3 57 3.9 WSW 13 20 7 11 1013.3 1013.3 0.0
28/09:30pm 14.4 10.6 4.1 50 4.7 WSW 13 15 7 8 1012.9 1012.9 0.0
28/09:00pm 15.6 11.9 4.6 48 5.2 WNW 13 17 7 9 1012.8 1012.8 0.0
28/08:30pm 16.1 11.0 6.0 51 4.9 WSW 22 32 12 17 1012.3 1012.3 0.0
28/08:00pm 15.7 12.7 7.5 58 4.1 WSW 13 19 7 10 1011.9 1011.9 0.0
28/07:30pm 15.3 13.4 9.0 66 3.2 SSW 9 13 5 7 1011.5 1011.5 0.0
28/07:00pm 13.2 11.7 10.6 84 1.4 NW 9 13 5 7 1011.3 1011.3 0.0
28/06:30pm 15.3 13.5 9.4 68 3.1 N 9 15 5 8 1010.3 1010.3 0.0
28/06:00pm 16.4 14.2 9.3 63 3.7 WSW 11 13 6 7 1010.0 1010.0 0.0
28/05:30pm 15.6 13.9 9.9 69 3.0 NNW 9 11 5 6 1009.1 1009.1 0.0
28/05:00pm 17.5 15.6 9.2 58 4.3 NNW 9 13 5 7 1008.8 1008.8 0.0
28/04:30pm 18.1 16.9 9.7 58 4.4 WNW 6 9 3 5 1009.0 1009.0 0.0
28/04:00pm 18.7 16.8 9.2 54 5.0 W 9 15 5 8 1008.9 1008.9 0.0
28/03:30pm 19.9 18.3 8.6 48 5.9 W 7 15 4 8 1008.6 1008.6 0.0
28/03:00pm 22.1 19.9 7.9 40 7.5 NW 9 15 5 8 1008.6 1008.6 0.0
28/02:30pm 20.2 14.7 7.6 44 6.5 NNW 26 35 14 19 1009.0 1009.0 0.0
28/02:00pm 21.1 16.6 7.0 40 7.2 NNW 20 26 11 14 1008.8 1008.8 0.0
28/01:30pm 21.1 16.5 6.6 39 7.4 N 20 28 11 15 1009.2 1009.2 0.0
28/01:00pm 21.3 18.9 10.2 49 6.1 NNE 13 17 7 9 1009.7 1009.7 0.0
28/12:30pm 20.5 19.8 12.0 58 4.8 N 7 9 4 5 1010.2 1010.2 0.0
28/12:00pm 18.3 17.9 12.3 68 3.3 NNE 6 7 3 4 1010.9 1010.9 0.0
28/11:30am 16.1 16.3 11.9 76 2.3 ESE 2 9 1 5 1011.5 1011.5 0.0
28/11:00am 14.4 14.4 11.2 81 1.7 NNW 2 6 1 3 1012.2 1012.2 0.0
28/10:30am 13.1 12.5 11.8 92 0.7 NNW 6 7 3 4 1012.5 1012.5 0.0
28/10:11am 11.8 12.4 11.8 100 0.0 CALM 0 0 0 0 1012.7 1012.7 0.0
28/10:03am 11.6 12.1 11.6 100 0.0 CALM 0 0 0 0 1012.7 1012.7 0.0
28/10:00am 11.4 11.8 11.4 100 0.0 CALM 0 2 0 1 1012.7 1012.7 0.0
28/09:30am 8.9 8.7 8.9 100 0.0 CALM 0 0 0 0 1013.1 1013.1 0.0
28/09:00am 8.0 7.5 7.9 99 0.0 CALM 0 6 0 3 1013.1 1013.1 0.2
28/08:30am 7.3 6.3 7.2 99 0.0 SSW 2 7 1 4 1013.5 1013.5 0.2
28/08:00am 6.6 5.4 6.5 99 0.0 SE 2 7 1 4 1013.6 1013.6 0.2
28/07:30am 6.3 5.0 6.2 99 0.0 NW 2 6 1 3 1013.8 1013.8 0.2
28/07:00am 7.0 6.3 6.9 99 0.0 CALM 0 6 0 3 1013.5 1013.5 0.2
28/06:30am 7.1 6.0 7.0 99 0.0 SE 2 6 1 3 1013.3 1013.3 0.2
28/06:00am 6.8 6.0 6.7 99 0.0 CALM 0 0 0 0 1013.3 1013.3 0.2
28/05:30am 6.9 5.8 6.8 99 0.0 E 2 7 1 4 1013.5 1013.5 0.0
28/05:00am 6.7 5.5 6.6 99 0.0 SW 2 7 1 4 1013.4 1013.4 0.0
28/04:30am 6.8 6.0 6.7 99 0.0 CALM 0 0 0 0 1013.6 1013.6 0.0
28/04:00am 7.2 5.4 7.1 99 0.0 WNW 6 7 3 4 1013.8 1013.8 0.0
28/03:30am 7.8 7.3 7.7 99 0.0 CALM 0 6 0 3 1013.9 1013.9 0.0
28/03:00am 7.6 6.6 7.5 99 0.0 SE 2 7 1 4 1014.3 1014.3 0.0
28/02:30am 7.3 6.3 7.2 99 0.0 SE 2 7 1 4 1014.9 1014.9 0.0
28/02:00am 7.4 6.8 7.3 99 0.0 CALM 0 0 0 0 1015.5 1015.4 0.0
28/01:30am 7.3 6.7 7.2 99 0.0 CALM 0 0 0 0 1015.6 1015.5 0.0
28/01:00am 7.3 6.7 7.2 99 0.0 CALM 0 0 0 0 1015.8 1015.7 0.0
28/12:30am 7.3 6.7 7.2 99 0.0 CALM 0 0 0 0 1016.1 1016.0 0.0
28/12:00am 7.1 6.4 7.0 99 0.0 CALM 0 0 0 0 1016.4 1016.3 0.0
 
Date/Time
EST
Temp
°C
App
Temp
°C
Dew
Point
°C
Rel
Hum
%
Delta-T
°C
Wind Press
QNH
hPa
Press
MSL
hPa
Rain since
9am
mm
Dir  Spd
km/h
Gust
km/h
Spd
kts
Gust
kts
27/11:58pm 7.0 6.3 6.9 99 0.0 CALM 0 0 0 0 1016.5 1016.4 0.0
27/11:30pm 7.1 6.4 7.0 99 0.0 CALM 0 0 0 0 1016.8 1016.7 0.0
27/11:00pm 7.7 7.1 7.6 99 0.0 CALM 0 0 0 0 1017.0 1016.9 0.0
27/10:30pm 8.2 7.8 8.1 99 0.0 CALM 0 0 0 0 1017.2 1017.1 0.0
27/10:00pm 8.7 8.3 8.4 98 0.1 CALM 0 0 0 0 1017.4 1017.3 0.0
27/09:30pm 9.6 9.5 9.5 99 0.0 CALM 0 0 0 0 1017.5 1017.4 0.0
27/09:00pm 9.4 9.2 8.9 97 0.2 CALM 0 0 0 0 1017.6 1017.5 0.0
27/08:30pm 10.2 10.2 9.9 98 0.2 CALM 0 0 0 0 1017.6 1017.5 0.0
27/08:15pm 10.3 10.2 9.5 95 0.4 CALM 0 0 0 0 1017.6 1017.5 0.0
27/08:00pm 10.5 10.4 9.4 93 0.6 CALM 0 0 0 0 1017.7 1017.6 0.0
27/07:57pm 10.7 10.6 9.6 93 0.6 CALM 0 0 0 0 1017.7 1017.6 0.0
27/07:30pm 11.7 12.0 10.8 94 0.5 CALM 0 6 0 3 1017.7 1017.6 0.0
27/07:00pm 11.7 11.8 10.3 91 0.7 CALM 0 6 0 3 1017.7 1017.6 0.0
27/06:30pm 12.5 12.0 10.6 88 1.0 N 4 7 2 4 1017.7 1017.6 0.0
27/06:00pm 13.7 14.1 11.2 85 1.3 CALM 0 0 0 0 1017.5 1017.4 0.0
27/05:30pm 15.1 14.2 10.5 74 2.4 N 6 6 3 3 1017.3 1017.2 0.0
27/05:00pm 16.6 15.8 10.9 69 3.1 N 6 7 3 4 1017.2 1017.1 0.0
27/04:30pm 18.2 16.8 10.8 62 4.0 NNE 9 11 5 6 1017.0 1016.9 0.0
27/04:00pm 19.3 17.9 10.8 58 4.6 NNE 9 13 5 7 1017.2 1017.1 0.0
27/03:30pm 19.6 17.7 10.6 56 4.9 N 11 17 6 9 1017.3 1017.2 0.0
27/03:00pm 19.8 18.1 10.0 53 5.3 NE 9 15 5 8 1017.4 1017.3 0.0
27/02:30pm 19.6 17.2 10.0 54 5.2 N 13 19 7 10 1017.5 1017.4 0.0
27/02:00pm 19.1 17.2 10.4 57 4.7 NE 11 15 6 8 1017.7 1017.6 0.0
27/01:30pm 19.3 17.6 11.1 59 4.5 NNE 11 17 6 9 1018.2 1018.1 0.0
27/01:00pm 18.5 16.2 10.6 60 4.3 NNE 13 19 7 10 1018.6 1018.6 0.0
27/12:30pm 18.9 18.1 11.7 63 4.0 N 7 13 4 7 1019.2 1019.2 0.0
27/12:00pm 19.4 18.8 11.7 61 4.3 N 6 11 3 6 1019.8 1019.8 0.0
27/11:30am 19.2 19.4 12.0 63 4.0 N 2 6 1 3 1020.4 1020.4 0.0
27/11:00am 18.1 18.1 11.2 64 3.7 NNW 2 7 1 4 1021.2 1021.2 0.0
27/10:30am 16.8 17.3 11.5 71 2.9 CALM 0 0 0 0 1021.7 1021.7 0.0
27/10:00am 14.9 15.2 10.9 77 2.1 CALM 0 0 0 0 1022.0 1022.0 0.0
27/09:30am 13.6 13.1 10.8 83 1.5 SSE 4 9 2 5 1022.1 1022.1 0.0
27/09:00am 11.9 11.0 10.5 91 0.7 S 6 9 3 5 1022.2 1022.2 0.0
27/08:30am 10.2 9.1 10.1 99 0.1 ESE 6 7 3 4 1022.3 1022.3 0.0
27/08:00am 7.8 7.3 7.7 99 0.0 CALM 0 0 0 0 1022.2 1022.2 0.0
27/07:30am 6.7 5.9 6.6 99 0.0 CALM 0 0 0 0 1022.3 1022.3 0.0
27/07:00am 5.8 4.8 5.7 99 0.0 CALM 0 0 0 0 1022.2 1022.2 0.0
27/06:56am 5.8 4.8 5.7 99 0.0 CALM 0 0 0 0 1022.2 1022.2 0.0
27/06:30am 5.5 4.5 5.4 99 0.0 CALM 0 0 0 0 1021.9 1021.9 0.0
27/06:00am 6.2 5.3 6.1 99 0.0 CALM 0 0 0 0 1021.8 1021.8 0.0
27/05:55am 6.1 5.2 6.0 99 0.0 CALM 0 0 0 0 1021.7 1021.7 0.0
27/05:30am 6.2 5.3 6.1 99 0.0 CALM 0 0 0 0 1021.7 1021.7 0.0
27/05:12am 6.2 5.3 6.1 99 0.0 CALM 0 0 0 0 1021.5 1021.5 0.0
27/05:00am 6.1 5.2 6.0 99 0.0 CALM 0 0 0 0 1021.5 1021.5 0.0
27/04:30am 6.1 5.2 6.0 99 0.0 CALM 0 0 0 0 1021.3 1021.3 0.0
27/04:00am 6.6 4.7 6.5 99 0.0 SSE 6 6 3 3 1021.4 1021.4 0.0
27/03:30am 6.5 4.5 6.4 99 0.0 SSE 6 7 3 4 1021.4 1021.4 0.0
27/03:00am 7.1 6.4 7.0 99 0.0 CALM 0 0 0 0 1021.8 1021.8 0.0
27/02:43am 7.1 6.4 7.0 99 0.0 CALM 0 0 0 0 1021.8 1021.8 0.0
27/02:30am 7.4 6.8 7.3 99 0.0 CALM 0 0 0 0 1022.0 1022.0 0.0
27/02:28am 7.4 6.8 7.3 99 0.0 CALM 0 0 0 0 1022.0 1022.0 0.0
27/02:07am 7.3 6.7 7.2 99 0.0 CALM 0 0 0 0 1022.0 1022.0 0.0
27/02:00am 6.9 6.2 6.8 99 0.0 CALM 0 0 0 0 1022.0 1022.0 0.0
27/01:30am 7.3 6.7 7.2 99 0.0 CALM 0 0 0 0 1022.0 1022.0 0.0
27/01:27am 7.1 6.4 7.0 99 0.0 CALM 0 0 0 0 1022.1 1022.1 0.0
27/01:00am 7.0 6.3 6.9 99 0.0 CALM 0 0 0 0 1022.3 1022.3 0.0
27/12:30am 7.2 6.5 7.1 99 0.0 CALM 0 0 0 0 1022.4 1022.4 0.0
27/12:00am 7.5 6.9 7.4 99 0.0 CALM 0 0 0 0 1022.4 1022.4 0.0
 
Date/Time
EST
Temp
°C
App
Temp
°C
Dew
Point
°C
Rel
Hum
%
Delta-T
°C
Wind Press
QNH
hPa
Press
MSL
hPa
Rain since
9am
mm
Dir  Spd
km/h
Gust
km/h
Spd
kts
Gust
kts
26/11:36pm 7.4 6.8 7.3 99 0.0 CALM 0 0 0 0 1022.4 1022.4 0.0
26/11:32pm 7.4 6.8 7.3 99 0.0 CALM 0 0 0 0 1022.5 1022.5 0.0
26/11:30pm 7.3 6.6 7.0 98 0.1 CALM 0 0 0 0 1022.5 1022.5 0.0
26/11:00pm 8.4 8.0 8.3 99 0.0 CALM 0 0 0 0 1022.3 1022.3 0.0
26/10:30pm 8.7 8.4 8.6 99 0.0 CALM 0 0 0 0 1022.6 1022.6 0.0
26/10:00pm 8.8 8.5 8.7 99 0.0 CALM 0 0 0 0 1022.5 1022.5 0.0
26/09:59pm 8.9 8.6 8.8 99 0.0 CALM 0 0 0 0 1022.5 1022.5 0.0
26/09:41pm 8.9 8.6 8.5 97 0.2 CALM 0 0 0 0 1022.5 1022.5 0.0
26/09:30pm 9.1 8.8 8.8 98 0.1 CALM 0 0 0 0 1022.5 1022.5 0.0
26/09:21pm 9.2 8.9 8.6 96 0.3 CALM 0 0 0 0 1022.5 1022.5 0.0
26/09:00pm 9.3 9.0 8.7 96 0.3 CALM 0 0 0 0 1022.5 1022.5 0.0
26/08:30pm 10.2 10.3 10.1 99 0.1 CALM 0 0 0 0 1022.3 1022.3 0.0
26/08:12pm 9.9 9.7 9.0 94 0.4 CALM 0 0 0 0 1022.3 1022.3 0.0
26/08:00pm 10.6 10.5 9.4 92 0.6 CALM 0 0 0 0 1022.2 1022.2 0.0
26/07:30pm 11.1 11.2 10.3 95 0.4 CALM 0 0 0 0 1022.0 1022.0 0.0
26/07:00pm 11.6 11.8 10.5 93 0.6 CALM 0 0 0 0 1021.7 1021.7 0.0
26/06:30pm 11.6 10.5 9.9 89 0.9 N 6 7 3 4 1021.5 1021.5 0.0
26/06:00pm 13.6 13.6 9.8 78 2.0 CALM 0 0 0 0 1021.4 1021.4 0.0
26/05:30pm 14.2 14.0 9.2 72 2.6 CALM 0 0 0 0 1021.0 1021.0 0.0
26/05:00pm 16.0 15.2 9.7 66 3.3 SE 4 7 2 4 1020.6 1020.6 0.0
26/04:30pm 16.4 15.6 9.6 64 3.6 ESE 4 9 2 5 1020.4 1020.4 0.0
26/04:00pm 17.0 15.6 9.7 62 3.8 SE 7 13 4 7 1020.2 1020.2 0.0
26/03:30pm 18.3 15.9 8.8 54 4.9 SE 11 19 6 10 1020.0 1020.0 0.0
26/03:00pm 18.6 16.1 9.7 56 4.7 SSE 13 20 7 11 1019.7 1019.7 0.0
26/02:30pm 19.1 16.4 9.0 52 5.3 SE 13 19 7 10 1019.7 1019.7 0.0
26/02:00pm 19.9 18.8 9.8 52 5.4 SW 6 9 3 5 1019.8 1019.8 0.0
26/01:30pm 19.7 17.7 8.7 49 5.8 SSW 9 13 5 7 1020.0 1020.0 0.0
26/01:00pm 19.1 17.3 8.1 49 5.7 SSW 7 11 4 6 1020.2 1020.2 0.0
26/12:30pm 18.9 17.3 8.6 51 5.4 SW 7 15 4 8 1020.4 1020.4 0.0
26/12:00pm 18.5 17.7 8.2 51 5.3 WSW 2 13 1 7 1020.8 1020.8 0.0
26/11:30am 17.7 15.5 7.7 52 5.1 SW 9 13 5 7 1021.3 1021.3 0.0
26/11:00am 17.3 15.1 7.9 54 4.8 SW 9 17 5 9 1021.6 1021.6 0.0
26/10:30am 16.3 13.3 7.8 57 4.3 SW 13 17 7 9 1021.9 1021.9 0.0
26/10:00am 13.7 13.0 8.5 71 2.6 SSW 2 7 1 4 1022.1 1022.1 0.0
26/09:30am 11.5 11.0 8.0 79 1.7 CALM 0 0 0 0 1022.2 1022.2 0.0
26/09:00am 9.5 9.2 8.6 94 0.4 CALM 0 0 0 0 1022.3 1022.3 0.0
26/08:30am 7.6 6.6 7.5 99 0.0 W 2 7 1 4 1022.1 1022.1 0.0
26/08:00am 6.7 5.9 6.6 99 0.0 CALM 0 0 0 0 1021.8 1021.8 0.0
26/07:30am 4.8 2.3 4.7 99 0.0 ESE 7 9 4 5 1021.5 1021.5 0.0
26/07:00am 3.8 2.0 3.7 99 0.0 NW 2 7 1 4 1021.4 1021.4 0.0
26/06:55am 4.0 2.3 3.9 99 0.0 NNW 2 7 1 4 1021.3 1021.3 0.0
26/06:30am 3.7 1.9 3.6 99 0.0 N 2 11 1 6 1021.1 1021.1 0.0
26/06:00am 4.2 2.9 4.1 99 0.0 CALM 0 0 0 0 1020.9 1020.9 0.0
26/05:30am 3.9 2.5 3.8 99 0.0 CALM 0 0 0 0 1020.6 1020.6 0.0
26/05:00am 4.0 2.7 3.9 99 0.0 CALM 0 0 0 0 1020.2 1020.2 0.0
26/04:49am 5.0 3.9 4.9 99 0.0 CALM 0 0 0 0 1020.1 1020.1 0.0
26/04:39am 5.5 4.5 5.4 99 0.0 CALM 0 0 0 0 1020.0 1020.0 0.0
26/04:30am 4.5 3.3 4.4 99 0.0 CALM 0 0 0 0 1019.9 1019.9 0.0

Latest Capital City Observations: Canberra | Sydney | Melbourne | Brisbane | Adelaide | Perth | Hobart | Darwin

Other Formats:

Comma delimited format used in spreadsheet applications
http://www.bom.gov.au/fwo/IDN60901/IDN60901.94755.axf

JavaScript Object Notation format (JSON) in row-major order
http://www.bom.gov.au/fwo/IDN60901/IDN60901.94755.json